Country
Station

 

Weather  for  Great Bend Automatic Weather Observing/Reporting System  -  United States    United States

  
15 °C (59 °F)
    
 
 

Current METAR for Great Bend Automatic Weather Observing/Reporting System is :

KGBD 161856Z AUTO 19017KT 10SM CLR 15/01 A3001 RMK AO2 SLP165 T01500011

 

This is a report for Great Bend Automatic Weather Observing/Reporting System - United States.
 
The report was made 6 minutes ago, at 18:56 UTC .
The wind was blowing at a speed of 8.7 meters per second (19.6 miles per hour) from south (190°).
 
The temperature was 15 °C (59 °F), with a dew-point at 1 °C (34 °F).
The atmospheric pressure was 1016 hPa (30.01 inHg).
The relative humidity was 38.5%.
 
The sky was clear.
 
The overall visibility was 16.1 kilometers (10.0 miles).
 

 
 
 
 

Country :   A   B   C   D   E   F   G   H   I   J   K   L   M   N   O   P   Q   R   S   T   U   V   W   Y   Z

 

Site Info  |  Disclaimer  |  Credits  |  Privacy
Contact us  |  Add to favorites
© 2013-2018 METARs - All rights reserved